createdAt,value
2022-11-30T08:30:17.976Z,6.60
2022-11-30T08:32:53.058Z,6.70
2022-11-30T08:48:40.219Z,6.80
2022-11-30T09:17:47.849Z,7.10
2022-11-30T09:20:14.696Z,7.10
2022-11-30T09:22:41.423Z,7.20
2022-11-30T09:46:40.401Z,7.40
2022-11-30T09:55:45.169Z,7.70
2022-11-30T09:58:23.975Z,7.70
2022-11-30T10:00:50.691Z,7.80
2022-11-30T10:03:24.203Z,7.80
2022-11-30T10:09:42.226Z,7.80
2022-11-30T10:23:11.382Z,8.10
2022-11-30T10:25:44.756Z,8.20
2022-11-30T10:28:49.697Z,8.20
2022-11-30T10:31:47.240Z,8.20
2022-11-30T10:34:26.375Z,8.30
2022-11-30T10:37:32.475Z,8.30
2022-11-30T11:02:51.034Z,8.80
2022-11-30T11:05:31.702Z,8.70
2022-11-30T11:15:26.949Z,8.90
2022-11-30T11:18:33.403Z,8.90
2022-11-30T11:40:39.562Z,8.50
2022-11-30T11:46:12.458Z,8.40
2022-11-30T11:52:13.533Z,8.30
2022-11-30T11:54:53.323Z,8.30
2022-11-30T11:57:27.536Z,8.20
2022-11-30T12:00:00.352Z,8.30
2022-11-30T12:06:19.185Z,8.30
2022-11-30T12:09:20.568Z,8.40
2022-11-30T12:14:42.103Z,8.30
2022-11-30T12:26:58.041Z,8.60
2022-11-30T12:29:34.832Z,8.60
2022-11-30T12:32:33.492Z,8.70
2022-11-30T13:07:58.128Z,8.70
2022-11-30T13:10:51.550Z,8.50
2022-11-30T13:13:32.074Z,8.40
2022-11-30T13:16:00.836Z,8.40
2022-11-30T13:18:33.680Z,8.30
2022-11-30T13:21:40.833Z,8.20
2022-11-30T13:24:49.987Z,8.20
2022-11-30T13:30:26.322Z,8.20
2022-11-30T13:33:33.924Z,8.30
2022-11-30T13:36:30.515Z,8.30
2022-11-30T13:39:30.043Z,8.40
2022-11-30T13:42:09.367Z,8.50
2022-11-30T13:48:37.018Z,8.40
2022-11-30T13:51:04.920Z,8.20
2022-11-30T13:53:39.321Z,8.20
2022-11-30T14:01:47.031Z,8.20
2022-11-30T14:04:19.619Z,8.20
2022-11-30T14:06:54.266Z,8.20
2022-11-30T14:09:58.736Z,8.10
2022-11-30T14:15:33.871Z,8.00
2022-11-30T14:18:39.547Z,7.90
2022-11-30T14:21:48.914Z,7.90
2022-11-30T14:24:31.164Z,7.70
2022-11-30T14:26:58.952Z,7.70
2022-11-30T14:29:31.462Z,7.70
2022-11-30T14:32:07.295Z,7.60
2022-11-30T14:35:17.567Z,7.60
2022-11-30T14:37:55.253Z,7.60
2022-11-30T14:43:24.709Z,7.50
2022-11-30T14:46:20.831Z,7.50
2022-11-30T14:49:22.729Z,7.40
2022-11-30T14:55:29.025Z,7.40
2022-11-30T15:01:35.643Z,7.20
2022-11-30T15:04:14.840Z,7.20
2022-11-30T15:06:44.690Z,7.10
2022-11-30T15:09:20.168Z,7.10
2022-11-30T15:11:49.978Z,7.00
2022-11-30T15:14:16.825Z,7.00
2022-11-30T15:16:49.981Z,7.00
2022-11-30T15:19:24.543Z,6.90
2022-11-30T15:25:23.420Z,6.80
2022-11-30T15:27:50.500Z,6.80
2022-11-30T15:30:17.547Z,6.80
2022-11-30T15:32:46.404Z,6.70
2022-11-30T15:35:34.175Z,6.70
2022-11-30T15:44:26.614Z,6.50
2022-11-30T15:47:42.817Z,6.50
2022-11-30T15:59:25.462Z,6.30
2022-11-30T16:02:34.358Z,6.20
2022-11-30T16:05:31.920Z,6.10
2022-11-30T16:08:04.885Z,6.10
2022-11-30T16:17:33.330Z,6.00
2022-11-30T16:20:13.327Z,5.90
2022-11-30T16:22:46.919Z,5.90
2022-11-30T16:25:22.709Z,5.90
2022-11-30T16:28:28.479Z,5.90
2022-11-30T16:31:10.386Z,5.90
2022-11-30T16:33:37.125Z,5.80
2022-11-30T17:54:31.306Z,5.00
2022-11-30T17:58:04.118Z,5.00
2022-11-30T18:00:42.513Z,5.00
2022-11-30T18:03:41.313Z,5.00
2022-11-30T18:06:08.339Z,5.00
2022-11-30T18:08:38.614Z,5.00
2022-11-30T18:11:09.557Z,5.00
2022-11-30T18:13:59.517Z,4.90
2022-11-30T19:16:55.678Z,5.50
2022-11-30T19:27:02.136Z,5.70
2022-11-30T20:29:57.332Z,5.20
2022-11-30T20:32:39.676Z,5.10
2022-11-30T20:35:10.011Z,5.10
2022-11-30T20:37:37.281Z,5.10
2022-11-30T20:40:10.126Z,5.10
2022-11-30T20:42:41.395Z,5.00
2022-11-30T20:45:12.464Z,5.00
2022-11-30T20:47:42.529Z,5.00
2022-11-30T20:57:32.399Z,4.90
2022-11-30T21:04:03.506Z,4.80
2022-11-30T21:06:30.690Z,4.80
2022-11-30T21:08:58.011Z,4.80
2022-11-30T21:11:25.380Z,4.80
2022-11-30T21:13:52.777Z,4.70
2022-11-30T21:16:27.740Z,4.70
2022-11-30T21:18:59.994Z,4.70
2022-11-30T21:21:35.004Z,4.70
2022-11-30T21:24:09.299Z,4.70
2022-11-30T21:26:39.036Z,4.70
2022-11-30T21:29:11.628Z,4.70
2022-11-30T21:31:38.716Z,4.70
2022-11-30T21:34:12.760Z,4.60
2022-11-30T21:36:39.560Z,4.60
2022-11-30T21:39:07.361Z,4.60
2022-11-30T21:41:36.667Z,4.60
2022-11-30T21:44:05.781Z,4.60
2022-11-30T21:46:36.014Z,4.60
2022-11-30T21:49:05.946Z,4.60
2022-11-30T21:51:40.344Z,4.50
2022-11-30T21:54:10.899Z,4.50
2022-11-30T21:56:39.689Z,4.50
2022-11-30T21:59:08.737Z,4.50
2022-11-30T22:01:42.769Z,4.40
2022-11-30T22:04:11.567Z,4.40
2022-11-30T22:06:40.820Z,4.40
2022-11-30T22:15:58.432Z,4.30
2022-11-30T22:21:17.622Z,4.20
